sensor_id;sensor_type;location;lat;lon;timestamp;P1;durP1;ratioP1;P2;durP2;ratioP2
41903;SDS011;27586;51.124;4.182;2022-08-19T00:00:34;7.72;;;4.90;;
41903;SDS011;27586;51.124;4.182;2022-08-19T00:03:01;8.13;;;4.95;;
41903;SDS011;27586;51.124;4.182;2022-08-19T00:05:27;7.78;;;5.03;;
41903;SDS011;27586;51.124;4.182;2022-08-19T00:07:53;8.20;;;5.18;;
41903;SDS011;27586;51.124;4.182;2022-08-19T00:10:19;8.30;;;5.40;;
41903;SDS011;27586;51.124;4.182;2022-08-19T00:12:45;8.80;;;5.20;;
41903;SDS011;27586;51.124;4.182;2022-08-19T00:15:12;7.15;;;4.47;;
41903;SDS011;27586;51.124;4.182;2022-08-19T00:17:40;7.88;;;4.85;;
41903;SDS011;27586;51.124;4.182;2022-08-19T00:20:08;6.72;;;4.40;;
41903;SDS011;27586;51.124;4.182;2022-08-19T00:22:36;7.00;;;4.47;;
41903;SDS011;27586;51.124;4.182;2022-08-19T00:25:03;7.78;;;5.35;;
41903;SDS011;27586;51.124;4.182;2022-08-19T00:27:30;8.77;;;5.35;;
41903;SDS011;27586;51.124;4.182;2022-08-19T00:29:56;9.40;;;5.57;;
41903;SDS011;27586;51.124;4.182;2022-08-19T00:32:23;9.23;;;5.88;;
41903;SDS011;27586;51.124;4.182;2022-08-19T00:34:50;8.52;;;4.82;;
41903;SDS011;27586;51.124;4.182;2022-08-19T00:37:22;7.90;;;5.32;;
41903;SDS011;27586;51.124;4.182;2022-08-19T00:39:48;8.68;;;5.22;;
41903;SDS011;27586;51.124;4.182;2022-08-19T00:42:16;8.20;;;5.45;;
41903;SDS011;27586;51.124;4.182;2022-08-19T00:44:42;9.75;;;5.15;;
41903;SDS011;27586;51.124;4.182;2022-08-19T00:47:08;7.65;;;4.18;;
41903;SDS011;27586;51.124;4.182;2022-08-19T00:49:35;10.57;;;6.07;;
41903;SDS011;27586;51.124;4.182;2022-08-19T00:52:07;8.13;;;4.78;;
41903;SDS011;27586;51.124;4.182;2022-08-19T00:54:39;6.82;;;4.82;;
41903;SDS011;27586;51.124;4.182;2022-08-19T00:57:06;7.88;;;5.18;;
41903;SDS011;27586;51.124;4.182;2022-08-19T00:59:37;7.80;;;5.43;;
41903;SDS011;27586;51.124;4.182;2022-08-19T01:02:05;7.53;;;5.07;;
41903;SDS011;27586;51.124;4.182;2022-08-19T01:04:30;8.10;;;5.53;;
41903;SDS011;27586;51.124;4.182;2022-08-19T01:06:56;9.38;;;5.80;;
41903;SDS011;27586;51.124;4.182;2022-08-19T01:09:23;8.85;;;5.45;;
41903;SDS011;27586;51.124;4.182;2022-08-19T01:11:49;9.38;;;5.13;;
41903;SDS011;27586;51.124;4.182;2022-08-19T01:14:16;8.55;;;4.88;;
41903;SDS011;27586;51.124;4.182;2022-08-19T01:16:42;7.75;;;4.93;;
41903;SDS011;27586;51.124;4.182;2022-08-19T01:19:52;9.27;;;6.03;;
41903;SDS011;27586;51.124;4.182;2022-08-19T01:22:02;8.77;;;5.35;;
41903;SDS011;27586;51.124;4.182;2022-08-19T01:24:33;10.18;;;5.75;;
41903;SDS011;27586;51.124;4.182;2022-08-19T01:26:59;8.82;;;5.35;;
41903;SDS011;27586;51.124;4.182;2022-08-19T01:29:28;8.77;;;5.38;;
41903;SDS011;27586;51.124;4.182;2022-08-19T01:31:54;9.07;;;4.97;;
41903;SDS011;27586;51.124;4.182;2022-08-19T01:34:19;7.93;;;5.75;;
41903;SDS011;27586;51.124;4.182;2022-08-19T01:36:46;9.15;;;5.60;;
41903;SDS011;27586;51.124;4.182;2022-08-19T01:39:15;8.45;;;5.40;;
41903;SDS011;27586;51.124;4.182;2022-08-19T01:41:42;9.02;;;5.45;;
41903;SDS011;27586;51.124;4.182;2022-08-19T01:44:08;8.68;;;5.28;;
41903;SDS011;27586;51.124;4.182;2022-08-19T01:46:35;8.02;;;5.25;;
41903;SDS011;27586;51.124;4.182;2022-08-19T01:49:02;9.07;;;4.97;;
41903;SDS011;27586;51.124;4.182;2022-08-19T01:51:29;7.88;;;5.20;;
41903;SDS011;27586;51.124;4.182;2022-08-19T01:53:55;9.57;;;5.63;;
41903;SDS011;27586;51.124;4.182;2022-08-19T01:56:22;7.93;;;5.32;;
41903;SDS011;27586;51.124;4.182;2022-08-19T01:58:59;8.18;;;5.57;;
41903;SDS011;27586;51.124;4.182;2022-08-19T02:01:29;8.85;;;5.68;;
41903;SDS011;27586;51.124;4.182;2022-08-19T02:03:57;8.05;;;4.90;;
41903;SDS011;27586;51.124;4.182;2022-08-19T02:06:23;9.75;;;5.85;;
41903;SDS011;27586;51.124;4.182;2022-08-19T02:08:49;7.53;;;4.65;;
41903;SDS011;27586;51.124;4.182;2022-08-19T02:11:19;8.65;;;5.60;;
41903;SDS011;27586;51.124;4.182;2022-08-19T02:13:57;9.27;;;5.93;;
41903;SDS011;27586;51.124;4.182;2022-08-19T02:16:24;7.90;;;5.07;;
41903;SDS011;27586;51.124;4.182;2022-08-19T02:18:50;7.95;;;4.88;;
41903;SDS011;27586;51.124;4.182;2022-08-19T02:21:19;9.00;;;5.60;;
41903;SDS011;27586;51.124;4.182;2022-08-19T02:23:46;8.50;;;5.03;;
41903;SDS011;27586;51.124;4.182;2022-08-19T02:26:12;8.25;;;4.70;;
41903;SDS011;27586;51.124;4.182;2022-08-19T02:28:39;8.43;;;5.03;;
41903;SDS011;27586;51.124;4.182;2022-08-19T02:31:13;6.70;;;4.80;;
41903;SDS011;27586;51.124;4.182;2022-08-19T02:33:42;9.52;;;5.63;;
41903;SDS011;27586;51.124;4.182;2022-08-19T02:36:08;6.47;;;4.32;;
41903;SDS011;27586;51.124;4.182;2022-08-19T02:38:34;7.60;;;4.82;;
41903;SDS011;27586;51.124;4.182;2022-08-19T02:41:03;6.38;;;4.60;;
41903;SDS011;27586;51.124;4.182;2022-08-19T02:43:32;7.60;;;4.80;;
41903;SDS011;27586;51.124;4.182;2022-08-19T02:46:01;6.85;;;4.45;;
41903;SDS011;27586;51.124;4.182;2022-08-19T02:48:37;7.25;;;4.93;;
41903;SDS011;27586;51.124;4.182;2022-08-19T02:51:03;9.77;;;5.15;;
41903;SDS011;27586;51.124;4.182;2022-08-19T02:53:30;7.13;;;4.60;;
41903;SDS011;27586;51.124;4.182;2022-08-19T02:55:56;5.90;;;3.97;;
41903;SDS011;27586;51.124;4.182;2022-08-19T02:58:22;7.05;;;4.38;;
41903;SDS011;27586;51.124;4.182;2022-08-19T03:00:50;6.22;;;4.32;;
41903;SDS011;27586;51.124;4.182;2022-08-19T03:03:18;6.65;;;4.22;;
41903;SDS011;27586;51.124;4.182;2022-08-19T03:05:44;5.90;;;4.10;;
41903;SDS011;27586;51.124;4.182;2022-08-19T03:08:10;6.22;;;3.88;;
41903;SDS011;27586;51.124;4.182;2022-08-19T03:10:44;6.35;;;4.05;;
41903;SDS011;27586;51.124;4.182;2022-08-19T03:13:12;5.80;;;3.83;;
41903;SDS011;27586;51.124;4.182;2022-08-19T03:15:43;6.35;;;3.90;;
41903;SDS011;27586;51.124;4.182;2022-08-19T03:18:11;5.60;;;3.83;;
41903;SDS011;27586;51.124;4.182;2022-08-19T03:20:42;5.35;;;3.78;;
41903;SDS011;27586;51.124;4.182;2022-08-19T03:23:10;5.88;;;3.88;;
41903;SDS011;27586;51.124;4.182;2022-08-19T03:25:41;7.20;;;3.88;;
41903;SDS011;27586;51.124;4.182;2022-08-19T03:28:10;5.63;;;3.78;;
41903;SDS011;27586;51.124;4.182;2022-08-19T03:30:38;7.88;;;4.30;;
41903;SDS011;27586;51.124;4.182;2022-08-19T03:33:05;6.18;;;3.90;;
41903;SDS011;27586;51.124;4.182;2022-08-19T03:35:32;5.65;;;3.30;;
41903;SDS011;27586;51.124;4.182;2022-08-19T03:38:01;6.47;;;3.92;;
41903;SDS011;27586;51.124;4.182;2022-08-19T03:40:28;5.35;;;3.72;;
41903;SDS011;27586;51.124;4.182;2022-08-19T03:42:55;7.15;;;4.55;;
41903;SDS011;27586;51.124;4.182;2022-08-19T03:45:22;4.95;;;3.88;;
41903;SDS011;27586;51.124;4.182;2022-08-19T03:47:48;5.93;;;3.90;;
41903;SDS011;27586;51.124;4.182;2022-08-19T03:50:13;5.53;;;3.70;;
41903;SDS011;27586;51.124;4.182;2022-08-19T03:52:40;6.30;;;3.58;;
41903;SDS011;27586;51.124;4.182;2022-08-19T03:55:06;5.68;;;3.70;;
41903;SDS011;27586;51.124;4.182;2022-08-19T03:57:32;6.70;;;3.83;;
41903;SDS011;27586;51.124;4.182;2022-08-19T03:59:59;5.63;;;3.88;;
41903;SDS011;27586;51.124;4.182;2022-08-19T04:02:26;5.53;;;3.80;;
41903;SDS011;27586;51.124;4.182;2022-08-19T04:04:53;6.43;;;3.63;;
41903;SDS011;27586;51.124;4.182;2022-08-19T04:07:20;6.18;;;3.75;;
41903;SDS011;27586;51.124;4.182;2022-08-19T04:09:46;4.95;;;3.22;;
41903;SDS011;27586;51.124;4.182;2022-08-19T04:12:13;5.10;;;3.40;;
41903;SDS011;27586;51.124;4.182;2022-08-19T04:14:40;4.70;;;3.33;;
41903;SDS011;27586;51.124;4.182;2022-08-19T04:17:06;4.00;;;3.00;;
41903;SDS011;27586;51.124;4.182;2022-08-19T04:19:32;5.50;;;3.78;;
41903;SDS011;27586;51.124;4.182;2022-08-19T04:22:00;4.97;;;2.97;;
41903;SDS011;27586;51.124;4.182;2022-08-19T04:24:27;4.95;;;3.30;;
41903;SDS011;27586;51.124;4.182;2022-08-19T04:26:53;4.82;;;3.60;;
41903;SDS011;27586;51.124;4.182;2022-08-19T04:29:22;4.95;;;3.33;;
41903;SDS011;27586;51.124;4.182;2022-08-19T04:31:50;5.10;;;3.40;;
41903;SDS011;27586;51.124;4.182;2022-08-19T04:34:17;3.83;;;3.10;;
41903;SDS011;27586;51.124;4.182;2022-08-19T04:36:47;5.25;;;3.20;;
41903;SDS011;27586;51.124;4.182;2022-08-19T04:39:16;4.25;;;2.75;;
41903;SDS011;27586;51.124;4.182;2022-08-19T04:41:45;6.43;;;3.13;;
41903;SDS011;27586;51.124;4.182;2022-08-19T04:44:30;5.15;;;3.28;;
41903;SDS011;27586;51.124;4.182;2022-08-19T04:46:57;4.35;;;3.03;;
41903;SDS011;27586;51.124;4.182;2022-08-19T04:49:23;4.75;;;3.28;;
41903;SDS011;27586;51.124;4.182;2022-08-19T04:51:51;4.30;;;3.13;;
41903;SDS011;27586;51.124;4.182;2022-08-19T04:54:19;4.95;;;3.22;;
41903;SDS011;27586;51.124;4.182;2022-08-19T04:56:47;4.00;;;2.78;;
41903;SDS011;27586;51.124;4.182;2022-08-19T04:59:15;4.28;;;3.13;;
41903;SDS011;27586;51.124;4.182;2022-08-19T05:01:42;5.18;;;3.13;;
41903;SDS011;27586;51.124;4.182;2022-08-19T05:04:08;3.95;;;2.90;;
41903;SDS011;27586;51.124;4.182;2022-08-19T05:06:35;5.55;;;3.42;;
41903;SDS011;27586;51.124;4.182;2022-08-19T05:09:02;3.22;;;2.80;;
41903;SDS011;27586;51.124;4.182;2022-08-19T05:11:30;3.63;;;2.75;;
41903;SDS011;27586;51.124;4.182;2022-08-19T05:13:58;4.30;;;2.80;;
41903;SDS011;27586;51.124;4.182;2022-08-19T05:16:24;4.18;;;2.55;;
41903;SDS011;27586;51.124;4.182;2022-08-19T05:18:51;4.60;;;2.88;;
41903;SDS011;27586;51.124;4.182;2022-08-19T05:21:36;2.85;;;2.38;;
41903;SDS011;27586;51.124;4.182;2022-08-19T05:24:21;3.97;;;3.00;;
41903;SDS011;27586;51.124;4.182;2022-08-19T05:26:49;3.83;;;2.88;;
41903;SDS011;27586;51.124;4.182;2022-08-19T05:29:17;3.45;;;2.75;;
41903;SDS011;27586;51.124;4.182;2022-08-19T05:31:45;4.35;;;2.95;;
41903;SDS011;27586;51.124;4.182;2022-08-19T05:34:12;4.20;;;2.55;;
41903;SDS011;27586;51.124;4.182;2022-08-19T05:36:40;3.70;;;2.47;;
41903;SDS011;27586;51.124;4.182;2022-08-19T05:39:09;4.38;;;2.85;;
41903;SDS011;27586;51.124;4.182;2022-08-19T05:41:57;4.82;;;2.83;;
41903;SDS011;27586;51.124;4.182;2022-08-19T05:44:25;3.67;;;2.67;;
41903;SDS011;27586;51.124;4.182;2022-08-19T05:46:52;3.35;;;2.58;;
41903;SDS011;27586;51.124;4.182;2022-08-19T05:49:19;2.80;;;2.15;;
41903;SDS011;27586;51.124;4.182;2022-08-19T05:51:47;3.33;;;2.40;;
41903;SDS011;27586;51.124;4.182;2022-08-19T05:54:14;3.33;;;2.30;;
41903;SDS011;27586;51.124;4.182;2022-08-19T05:56:40;4.43;;;2.40;;
41903;SDS011;27586;51.124;4.182;2022-08-19T05:59:07;2.90;;;2.13;;
41903;SDS011;27586;51.124;4.182;2022-08-19T06:01:36;3.35;;;2.40;;
41903;SDS011;27586;51.124;4.182;2022-08-19T06:04:03;3.03;;;2.42;;
41903;SDS011;27586;51.124;4.182;2022-08-19T06:06:29;3.08;;;2.03;;
41903;SDS011;27586;51.124;4.182;2022-08-19T06:08:55;2.83;;;2.15;;
41903;SDS011;27586;51.124;4.182;2022-08-19T06:11:24;4.90;;;2.83;;
41903;SDS011;27586;51.124;4.182;2022-08-19T06:14:05;2.67;;;2.17;;
41903;SDS011;27586;51.124;4.182;2022-08-19T06:16:35;2.28;;;1.98;;
41903;SDS011;27586;51.124;4.182;2022-08-19T06:19:04;2.85;;;1.85;;
41903;SDS011;27586;51.124;4.182;2022-08-19T06:21:33;4.60;;;2.38;;
41903;SDS011;27586;51.124;4.182;2022-08-19T06:24:01;3.80;;;2.33;;
41903;SDS011;27586;51.124;4.182;2022-08-19T06:26:28;4.47;;;2.80;;
41903;SDS011;27586;51.124;4.182;2022-08-19T06:28:54;4.03;;;2.17;;
41903;SDS011;27586;51.124;4.182;2022-08-19T06:31:21;2.78;;;2.03;;
41903;SDS011;27586;51.124;4.182;2022-08-19T06:33:51;3.35;;;2.30;;
41903;SDS011;27586;51.124;4.182;2022-08-19T06:36:20;2.22;;;1.98;;
41903;SDS011;27586;51.124;4.182;2022-08-19T06:38:57;3.22;;;2.22;;
41903;SDS011;27586;51.124;4.182;2022-08-19T06:41:24;3.17;;;2.00;;
41903;SDS011;27586;51.124;4.182;2022-08-19T06:43:51;2.78;;;1.80;;
41903;SDS011;27586;51.124;4.182;2022-08-19T06:46:17;3.13;;;1.83;;
41903;SDS011;27586;51.124;4.182;2022-08-19T06:48:45;2.80;;;2.28;;
41903;SDS011;27586;51.124;4.182;2022-08-19T06:51:12;3.20;;;1.80;;
41903;SDS011;27586;51.124;4.182;2022-08-19T06:53:40;4.00;;;2.28;;
41903;SDS011;27586;51.124;4.182;2022-08-19T06:56:10;3.13;;;1.55;;
41903;SDS011;27586;51.124;4.182;2022-08-19T06:58:37;3.17;;;2.00;;
41903;SDS011;27586;51.124;4.182;2022-08-19T07:01:03;2.17;;;1.70;;
41903;SDS011;27586;51.124;4.182;2022-08-19T07:03:30;2.53;;;1.85;;
41903;SDS011;27586;51.124;4.182;2022-08-19T07:06:02;3.08;;;1.80;;
41903;SDS011;27586;51.124;4.182;2022-08-19T07:08:33;2.15;;;1.80;;
41903;SDS011;27586;51.124;4.182;2022-08-19T07:11:01;2.03;;;1.73;;
41903;SDS011;27586;51.124;4.182;2022-08-19T07:13:34;3.47;;;1.98;;
41903;SDS011;27586;51.124;4.182;2022-08-19T07:16:08;2.75;;;2.00;;
41903;SDS011;27586;51.124;4.182;2022-08-19T07:18:37;2.30;;;1.50;;
41903;SDS011;27586;51.124;4.182;2022-08-19T07:23:36;4.45;;;2.00;;
41903;SDS011;27586;51.124;4.182;2022-08-19T07:26:16;3.28;;;1.83;;
41903;SDS011;27586;51.124;4.182;2022-08-19T07:28:47;2.38;;;1.60;;
41903;SDS011;27586;51.124;4.182;2022-08-19T07:31:15;3.15;;;1.90;;
41903;SDS011;27586;51.124;4.182;2022-08-19T07:33:43;2.58;;;1.70;;
41903;SDS011;27586;51.124;4.182;2022-08-19T07:36:11;1.70;;;1.35;;
41903;SDS011;27586;51.124;4.182;2022-08-19T07:38:40;2.53;;;1.70;;
41903;SDS011;27586;51.124;4.182;2022-08-19T07:41:08;2.53;;;1.60;;
41903;SDS011;27586;51.124;4.182;2022-08-19T07:43:35;3.03;;;1.80;;
41903;SDS011;27586;51.124;4.182;2022-08-19T07:46:02;2.50;;;1.42;;
41903;SDS011;27586;51.124;4.182;2022-08-19T07:48:28;2.53;;;1.50;;
41903;SDS011;27586;51.124;4.182;2022-08-19T07:50:54;3.20;;;1.58;;
41903;SDS011;27586;51.124;4.182;2022-08-19T07:53:22;2.05;;;1.58;;
41903;SDS011;27586;51.124;4.182;2022-08-19T07:55:49;1.52;;;0.93;;
41903;SDS011;27586;51.124;4.182;2022-08-19T07:58:16;2.22;;;1.48;;
41903;SDS011;27586;51.124;4.182;2022-08-19T08:00:43;2.08;;;1.40;;
41903;SDS011;27586;51.124;4.182;2022-08-19T08:03:10;2.05;;;1.60;;
41903;SDS011;27586;51.124;4.182;2022-08-19T08:05:37;2.17;;;1.45;;
41903;SDS011;27586;51.124;4.182;2022-08-19T08:08:21;2.38;;;1.52;;
41903;SDS011;27586;51.124;4.182;2022-08-19T08:11:03;1.45;;;1.20;;
41903;SDS011;27586;51.124;4.182;2022-08-19T08:13:29;2.17;;;1.40;;
41903;SDS011;27586;51.124;4.182;2022-08-19T08:15:56;1.67;;;1.30;;
41903;SDS011;27586;51.124;4.182;2022-08-19T08:18:25;2.92;;;1.63;;
41903;SDS011;27586;51.124;4.182;2022-08-19T08:20:51;2.28;;;1.70;;
41903;SDS011;27586;51.124;4.182;2022-08-19T08:23:17;3.28;;;1.40;;
41903;SDS011;27586;51.124;4.182;2022-08-19T08:25:50;1.75;;;1.33;;
41903;SDS011;27586;51.124;4.182;2022-08-19T08:28:17;1.92;;;1.27;;
41903;SDS011;27586;51.124;4.182;2022-08-19T08:30:43;2.05;;;1.35;;
41903;SDS011;27586;51.124;4.182;2022-08-19T08:33:12;3.83;;;1.60;;
41903;SDS011;27586;51.124;4.182;2022-08-19T08:35:39;1.77;;;1.15;;
41903;SDS011;27586;51.124;4.182;2022-08-19T08:38:07;3.00;;;1.40;;
41903;SDS011;27586;51.124;4.182;2022-08-19T08:40:38;1.75;;;1.30;;
41903;SDS011;27586;51.124;4.182;2022-08-19T08:43:21;3.45;;;1.63;;
41903;SDS011;27586;51.124;4.182;2022-08-19T08:45:53;2.17;;;1.25;;
41903;SDS011;27586;51.124;4.182;2022-08-19T08:51:12;2.38;;;1.35;;
41903;SDS011;27586;51.124;4.182;2022-08-19T08:53:43;1.65;;;1.13;;
41903;SDS011;27586;51.124;4.182;2022-08-19T08:56:11;1.42;;;1.23;;
41903;SDS011;27586;51.124;4.182;2022-08-19T09:01:25;2.30;;;1.85;;
41903;SDS011;27586;51.124;4.182;2022-08-19T09:03:51;2.45;;;1.60;;
41903;SDS011;27586;51.124;4.182;2022-08-19T09:06:37;1.98;;;1.63;;
41903;SDS011;27586;51.124;4.182;2022-08-19T09:09:16;2.10;;;1.60;;
41903;SDS011;27586;51.124;4.182;2022-08-19T09:14:36;2.67;;;1.70;;
41903;SDS011;27586;51.124;4.182;2022-08-19T09:17:07;2.50;;;1.92;;
41903;SDS011;27586;51.124;4.182;2022-08-19T09:19:47;2.35;;;1.27;;
41903;SDS011;27586;51.124;4.182;2022-08-19T09:22:46;1.67;;;1.50;;
41903;SDS011;27586;51.124;4.182;2022-08-19T09:25:15;2.30;;;1.50;;
41903;SDS011;27586;51.124;4.182;2022-08-19T09:27:43;2.28;;;1.58;;
41903;SDS011;27586;51.124;4.182;2022-08-19T09:30:29;1.88;;;1.48;;
41903;SDS011;27586;51.124;4.182;2022-08-19T09:33:00;2.17;;;1.45;;
41903;SDS011;27586;51.124;4.182;2022-08-19T09:35:26;2.47;;;1.55;;
41903;SDS011;27586;51.124;4.182;2022-08-19T09:37:54;2.50;;;1.45;;
41903;SDS011;27586;51.124;4.182;2022-08-19T09:40:22;2.05;;;1.30;;
41903;SDS011;27586;51.124;4.182;2022-08-19T09:42:48;1.63;;;1.15;;
41903;SDS011;27586;51.124;4.182;2022-08-19T09:45:14;4.65;;;1.65;;
41903;SDS011;27586;51.124;4.182;2022-08-19T09:47:42;1.98;;;1.38;;
41903;SDS011;27586;51.124;4.182;2022-08-19T09:50:09;1.63;;;1.30;;
41903;SDS011;27586;51.124;4.182;2022-08-19T09:52:36;2.33;;;1.25;;
41903;SDS011;27586;51.124;4.182;2022-08-19T09:55:03;3.03;;;1.95;;
41903;SDS011;27586;51.124;4.182;2022-08-19T09:57:29;1.95;;;1.42;;
41903;SDS011;27586;51.124;4.182;2022-08-19T09:59:55;2.50;;;1.40;;
41903;SDS011;27586;51.124;4.182;2022-08-19T10:02:21;2.25;;;1.65;;
41903;SDS011;27586;51.124;4.182;2022-08-19T10:04:46;2.60;;;1.80;;
41903;SDS011;27586;51.124;4.182;2022-08-19T10:07:30;2.03;;;1.77;;
41903;SDS011;27586;51.124;4.182;2022-08-19T10:09:56;2.22;;;1.70;;
41903;SDS011;27586;51.124;4.182;2022-08-19T10:12:22;1.65;;;1.35;;
41903;SDS011;27586;51.124;4.182;2022-08-19T10:14:48;2.38;;;1.40;;
41903;SDS011;27586;51.124;4.182;2022-08-19T10:17:16;3.17;;;1.70;;
41903;SDS011;27586;51.124;4.182;2022-08-19T10:19:42;3.08;;;1.75;;
41903;SDS011;27586;51.124;4.182;2022-08-19T10:22:08;1.67;;;1.35;;
41903;SDS011;27586;51.124;4.182;2022-08-19T10:24:36;1.55;;;1.30;;
41903;SDS011;27586;51.124;4.182;2022-08-19T10:27:02;2.80;;;1.40;;
41903;SDS011;27586;51.124;4.182;2022-08-19T10:29:31;2.28;;;1.40;;
41903;SDS011;27586;51.124;4.182;2022-08-19T10:31:57;1.58;;;1.40;;
41903;SDS011;27586;51.124;4.182;2022-08-19T10:34:25;2.67;;;1.38;;
41903;SDS011;27586;51.124;4.182;2022-08-19T10:36:54;2.45;;;1.30;;
41903;SDS011;27586;51.124;4.182;2022-08-19T10:39:21;3.42;;;1.70;;
41903;SDS011;27586;51.124;4.182;2022-08-19T10:41:47;2.80;;;1.65;;
41903;SDS011;27586;51.124;4.182;2022-08-19T10:44:14;2.58;;;1.58;;
41903;SDS011;27586;51.124;4.182;2022-08-19T10:46:42;2.03;;;1.45;;
41903;SDS011;27586;51.124;4.182;2022-08-19T10:49:09;1.58;;;1.33;;
41903;SDS011;27586;51.124;4.182;2022-08-19T10:51:37;1.45;;;1.10;;
41903;SDS011;27586;51.124;4.182;2022-08-19T10:54:22;1.60;;;1.20;;
41903;SDS011;27586;51.124;4.182;2022-08-19T10:56:49;1.73;;;1.30;;
41903;SDS011;27586;51.124;4.182;2022-08-19T10:59:19;1.50;;;1.30;;
41903;SDS011;27586;51.124;4.182;2022-08-19T11:01:46;1.40;;;1.25;;
41903;SDS011;27586;51.124;4.182;2022-08-19T11:04:13;1.17;;;0.90;;
41903;SDS011;27586;51.124;4.182;2022-08-19T11:06:42;1.40;;;1.20;;
41903;SDS011;27586;51.124;4.182;2022-08-19T11:09:10;2.30;;;1.58;;
41903;SDS011;27586;51.124;4.182;2022-08-19T11:11:36;1.90;;;1.25;;
41903;SDS011;27586;51.124;4.182;2022-08-19T11:14:12;1.67;;;1.30;;
41903;SDS011;27586;51.124;4.182;2022-08-19T11:16:40;1.40;;;1.20;;
41903;SDS011;27586;51.124;4.182;2022-08-19T11:19:08;1.63;;;1.23;;
41903;SDS011;27586;51.124;4.182;2022-08-19T11:21:40;2.53;;;1.25;;
41903;SDS011;27586;51.124;4.182;2022-08-19T11:24:08;1.63;;;0.93;;
41903;SDS011;27586;51.124;4.182;2022-08-19T11:26:43;1.67;;;1.17;;
41903;SDS011;27586;51.124;4.182;2022-08-19T11:29:09;1.90;;;1.30;;
41903;SDS011;27586;51.124;4.182;2022-08-19T11:31:39;1.10;;;1.00;;
41903;SDS011;27586;51.124;4.182;2022-08-19T11:34:07;2.00;;;1.10;;
41903;SDS011;27586;51.124;4.182;2022-08-19T11:36:34;1.38;;;1.02;;
41903;SDS011;27586;51.124;4.182;2022-08-19T11:39:03;0.70;;;0.70;;
41903;SDS011;27586;51.124;4.182;2022-08-19T11:41:33;1.25;;;0.90;;
41903;SDS011;27586;51.124;4.182;2022-08-19T11:43:59;0.80;;;0.80;;
41903;SDS011;27586;51.124;4.182;2022-08-19T11:46:25;1.58;;;0.88;;
41903;SDS011;27586;51.124;4.182;2022-08-19T11:48:54;1.17;;;0.93;;
41903;SDS011;27586;51.124;4.182;2022-08-19T11:51:21;1.20;;;0.90;;
41903;SDS011;27586;51.124;4.182;2022-08-19T11:53:49;1.20;;;0.98;;
41903;SDS011;27586;51.124;4.182;2022-08-19T11:56:16;0.82;;;0.80;;
41903;SDS011;27586;51.124;4.182;2022-08-19T11:58:42;0.90;;;0.70;;
41903;SDS011;27586;51.124;4.182;2022-08-19T12:01:09;2.38;;;0.70;;
41903;SDS011;27586;51.124;4.182;2022-08-19T12:03:41;2.38;;;0.75;;
41903;SDS011;27586;51.124;4.182;2022-08-19T12:06:09;0.93;;;0.80;;
41903;SDS011;27586;51.124;4.182;2022-08-19T12:08:38;1.55;;;1.05;;
41903;SDS011;27586;51.124;4.182;2022-08-19T12:11:08;1.42;;;0.80;;
41903;SDS011;27586;51.124;4.182;2022-08-19T12:13:35;1.70;;;1.00;;
41903;SDS011;27586;51.124;4.182;2022-08-19T12:16:06;1.13;;;1.00;;
41903;SDS011;27586;51.124;4.182;2022-08-19T12:18:37;1.13;;;0.45;;
41903;SDS011;27586;51.124;4.182;2022-08-19T12:21:04;0.75;;;0.60;;
41903;SDS011;27586;51.124;4.182;2022-08-19T12:23:30;0.57;;;0.57;;
41903;SDS011;27586;51.124;4.182;2022-08-19T12:25:55;0.75;;;0.65;;
41903;SDS011;27586;51.124;4.182;2022-08-19T12:28:23;0.70;;;0.70;;
41903;SDS011;27586;51.124;4.182;2022-08-19T12:30:50;0.80;;;0.80;;
41903;SDS011;27586;51.124;4.182;2022-08-19T12:33:17;0.70;;;0.70;;
41903;SDS011;27586;51.124;4.182;2022-08-19T12:35:44;0.57;;;0.50;;
41903;SDS011;27586;51.124;4.182;2022-08-19T12:38:11;0.60;;;0.60;;
41903;SDS011;27586;51.124;4.182;2022-08-19T12:40:37;0.80;;;0.50;;
41903;SDS011;27586;51.124;4.182;2022-08-19T12:43:05;0.73;;;0.50;;
41903;SDS011;27586;51.124;4.182;2022-08-19T12:45:31;0.40;;;0.40;;
41903;SDS011;27586;51.124;4.182;2022-08-19T12:47:56;0.50;;;0.50;;
41903;SDS011;27586;51.124;4.182;2022-08-19T12:50:23;1.92;;;0.82;;
41903;SDS011;27586;51.124;4.182;2022-08-19T12:52:48;1.63;;;0.70;;
41903;SDS011;27586;51.124;4.182;2022-08-19T12:55:14;0.90;;;0.60;;
41903;SDS011;27586;51.124;4.182;2022-08-19T12:57:40;0.70;;;0.70;;
41903;SDS011;27586;51.124;4.182;2022-08-19T13:00:08;1.08;;;0.75;;
41903;SDS011;27586;51.124;4.182;2022-08-19T13:02:38;0.70;;;0.70;;
41903;SDS011;27586;51.124;4.182;2022-08-19T13:05:06;0.57;;;0.55;;
41903;SDS011;27586;51.124;4.182;2022-08-19T13:07:33;0.68;;;0.60;;
41903;SDS011;27586;51.124;4.182;2022-08-19T13:09:59;0.57;;;0.50;;
41903;SDS011;27586;51.124;4.182;2022-08-19T13:12:26;1.20;;;0.75;;
41903;SDS011;27586;51.124;4.182;2022-08-19T13:14:52;0.80;;;0.80;;
41903;SDS011;27586;51.124;4.182;2022-08-19T13:17:19;0.50;;;0.32;;
41903;SDS011;27586;51.124;4.182;2022-08-19T13:19:45;0.70;;;0.70;;
41903;SDS011;27586;51.124;4.182;2022-08-19T13:22:11;0.52;;;0.52;;
41903;SDS011;27586;51.124;4.182;2022-08-19T13:24:37;0.98;;;0.70;;
41903;SDS011;27586;51.124;4.182;2022-08-19T13:27:03;1.00;;;0.80;;
41903;SDS011;27586;51.124;4.182;2022-08-19T13:29:29;0.57;;;0.57;;
41903;SDS011;27586;51.124;4.182;2022-08-19T13:32:13;0.70;;;0.65;;
41903;SDS011;27586;51.124;4.182;2022-08-19T13:34:57;1.42;;;0.80;;
41903;SDS011;27586;51.124;4.182;2022-08-19T13:37:23;1.77;;;1.05;;
41903;SDS011;27586;51.124;4.182;2022-08-19T13:40:07;1.02;;;0.80;;
41903;SDS011;27586;51.124;4.182;2022-08-19T13:42:37;0.90;;;0.82;;
41903;SDS011;27586;51.124;4.182;2022-08-19T13:45:07;1.23;;;0.80;;
41903;SDS011;27586;51.124;4.182;2022-08-19T13:47:34;1.02;;;0.80;;
41903;SDS011;27586;51.124;4.182;2022-08-19T13:50:03;0.88;;;0.88;;
41903;SDS011;27586;51.124;4.182;2022-08-19T13:52:29;0.85;;;0.85;;
41903;SDS011;27586;51.124;4.182;2022-08-19T13:54:55;0.77;;;0.60;;
41903;SDS011;27586;51.124;4.182;2022-08-19T13:57:21;0.90;;;0.50;;
41903;SDS011;27586;51.124;4.182;2022-08-19T13:59:47;0.30;;;0.30;;
41903;SDS011;27586;51.124;4.182;2022-08-19T14:02:12;0.60;;;0.60;;
41903;SDS011;27586;51.124;4.182;2022-08-19T14:04:38;0.40;;;0.40;;
41903;SDS011;27586;51.124;4.182;2022-08-19T14:07:04;0.30;;;0.30;;
41903;SDS011;27586;51.124;4.182;2022-08-19T14:09:30;0.40;;;0.32;;
41903;SDS011;27586;51.124;4.182;2022-08-19T14:11:55;0.43;;;0.43;;
41903;SDS011;27586;51.124;4.182;2022-08-19T14:14:21;0.70;;;0.45;;
41903;SDS011;27586;51.124;4.182;2022-08-19T14:16:47;0.40;;;0.40;;
41903;SDS011;27586;51.124;4.182;2022-08-19T14:19:14;0.10;;;0.10;;
41903;SDS011;27586;51.124;4.182;2022-08-19T14:21:40;0.30;;;0.30;;
41903;SDS011;27586;51.124;4.182;2022-08-19T14:24:06;0.50;;;0.50;;
41903;SDS011;27586;51.124;4.182;2022-08-19T14:26:32;1.02;;;0.80;;
41903;SDS011;27586;51.124;4.182;2022-08-19T14:28:58;0.77;;;0.77;;
41903;SDS011;27586;51.124;4.182;2022-08-19T14:31:24;0.63;;;0.55;;
41903;SDS011;27586;51.124;4.182;2022-08-19T14:33:51;2.60;;;0.60;;
41903;SDS011;27586;51.124;4.182;2022-08-19T14:36:18;1.13;;;0.38;;
41903;SDS011;27586;51.124;4.182;2022-08-19T14:38:45;0.60;;;0.47;;
41903;SDS011;27586;51.124;4.182;2022-08-19T14:41:12;0.20;;;0.20;;
41903;SDS011;27586;51.124;4.182;2022-08-19T14:43:44;0.32;;;0.32;;
41903;SDS011;27586;51.124;4.182;2022-08-19T14:46:12;0.30;;;0.30;;
41903;SDS011;27586;51.124;4.182;2022-08-19T14:48:44;0.20;;;0.20;;
41903;SDS011;27586;51.124;4.182;2022-08-19T14:51:10;0.30;;;0.30;;
41903;SDS011;27586;51.124;4.182;2022-08-19T14:53:36;0.30;;;0.30;;
41903;SDS011;27586;51.124;4.182;2022-08-19T14:56:06;0.40;;;0.40;;
41903;SDS011;27586;51.124;4.182;2022-08-19T14:58:36;0.20;;;0.20;;
41903;SDS011;27586;51.124;4.182;2022-08-19T15:01:02;0.40;;;0.30;;
41903;SDS011;27586;51.124;4.182;2022-08-19T15:03:29;0.13;;;0.13;;
41903;SDS011;27586;51.124;4.182;2022-08-19T15:05:56;0.45;;;0.32;;